Hauptseite
METAR-TAF:

METAR-TAF

Flughäfen :

Flughafen Annaba

Annaba, Algerien

Breite: 36-50N, Länge: 007-49E, Höhe: 4 m

Beobachtung

Neuester Wetterbericht von vor 19 Minuten, um 16:00 UTC
Wind 11 kt aus Nord
Temperatur 20°C
Luftfeuchtigkeit 43%
Luftdruck 1014 hPa
Sichtweite 10 km oder mehr
keine Wolken unter 1500 m und keine Kumulonimbus oder Gewitterwolken

METAR: DABB 251600Z 36011KT CAVOK 20/07 Q1014

Zeit: 17:19 (16:19 UTC)

Prognose

Neuester Wetterbericht von vor 5 Stunden und 19 Minuten, um 11:00 UTC
Gültige Prognose vom 25 um 12 UTC bis 26 um 12 UTC
Wind 14 kt aus Nord/Nordwest
Sichtweite 10 km oder mehr
Leicht bewölkt in der Höhe von 2300 ft
Aufgelockert bewölkt in der Höhe von 20000 ft
Übergehend zu
vom 25 um 18 UTC bis 25 um 20 UTC
Wind 8 kt aus Süd

TAF: DABB 251100Z 2512/2612 34014KT 9999 FEW023 SCT200 BECMG 2518/2520 19008KT

Wetterbeobachtungen und Prognosen von mehr als 4000 Flughäfen (METAR und TAF Bericht).

Die verfügbaren Stationen werden durch gelbe und rote Markierungen auf der Karte dargestellt.

Führen Sie die Maus auf sie, um den Namen der Station zu sehen.

Darauf klicken, um die Beobachtung von Wetterbeobachtungen und Prognosen zu sehen.

Um die Karte zu ändern : klicken Sie auf den grünen Tasten mit einem schwarzen Kreuz Zum Vergrößern, auf den grünen Button mit einem Gedankenstrich zu verkleinern, oder auf die grünen Pfeile für benachbarte Karten.


METAR-TAF: